Terminal Aerodrome Forecast
Issued by NWS

Home | Current Version | Previous Version | Graphics & Text | Print | Product List | Glossary Off
Versions: 1 2 3 4 5 6 7 8 9 10 11 12 13 14 15 16

000
FTUS43 KICT 281720
TAFCNU
TAF
KCNU 281720Z 2818/2918 VRB06KT P6SM FEW040
     FM282300 03006KT P6SM FEW040
     FM290800 35005KT P6SM VCTS BKN060CB OVC100
     FM291500 01005KT P6SM BKN120=

USA.gov is the U.S. government's official web portal to all federal, state and local government web resources and services.